sensor_id;sensor_type;location;lat;lon;timestamp;P1;durP1;ratioP1;P2;durP2;ratioP2
64094;SDS011;50353;51.420;5.682;2022-09-09T00:00:20;8.38;;;1.67;;
64094;SDS011;50353;51.420;5.682;2022-09-09T00:11:15;5.78;;;2.10;;
64094;SDS011;50353;51.420;5.682;2022-09-09T00:13:51;4.10;;;1.85;;
64094;SDS011;50353;51.420;5.682;2022-09-09T00:16:23;4.15;;;1.63;;
64094;SDS011;50353;51.420;5.682;2022-09-09T00:18:56;5.43;;;1.90;;
64094;SDS011;50353;51.420;5.682;2022-09-09T00:21:43;4.00;;;2.10;;
64094;SDS011;50353;51.420;5.682;2022-09-09T00:24:30;6.38;;;2.55;;
64094;SDS011;50353;51.420;5.682;2022-09-09T00:27:07;6.97;;;1.92;;
64094;SDS011;50353;51.420;5.682;2022-09-09T00:32:12;5.32;;;1.73;;
64094;SDS011;50353;51.420;5.682;2022-09-09T00:37:22;6.68;;;1.75;;
64094;SDS011;50353;51.420;5.682;2022-09-09T00:39:50;5.00;;;2.05;;
64094;SDS011;50353;51.420;5.682;2022-09-09T00:42:41;5.63;;;1.90;;
64094;SDS011;50353;51.420;5.682;2022-09-09T00:45:15;5.82;;;1.98;;
64094;SDS011;50353;51.420;5.682;2022-09-09T00:47:53;3.85;;;1.70;;
64094;SDS011;50353;51.420;5.682;2022-09-09T00:50:34;8.02;;;2.00;;
64094;SDS011;50353;51.420;5.682;2022-09-09T00:56:13;5.88;;;1.92;;
64094;SDS011;50353;51.420;5.682;2022-09-09T00:58:47;6.95;;;1.85;;
64094;SDS011;50353;51.420;5.682;2022-09-09T01:01:25;4.65;;;1.70;;
64094;SDS011;50353;51.420;5.682;2022-09-09T01:03:54;4.40;;;1.90;;
64094;SDS011;50353;51.420;5.682;2022-09-09T01:14:50;7.32;;;2.00;;
64094;SDS011;50353;51.420;5.682;2022-09-09T01:22:35;14.93;;;2.20;;
64094;SDS011;50353;51.420;5.682;2022-09-09T01:27:54;7.40;;;1.85;;
64094;SDS011;50353;51.420;5.682;2022-09-09T01:30:23;6.32;;;2.15;;
64094;SDS011;50353;51.420;5.682;2022-09-09T01:32:53;7.28;;;2.10;;
64094;SDS011;50353;51.420;5.682;2022-09-09T01:38:13;6.18;;;2.08;;
64094;SDS011;50353;51.420;5.682;2022-09-09T01:40:39;3.80;;;2.08;;
64094;SDS011;50353;51.420;5.682;2022-09-09T01:43:05;5.95;;;2.15;;
64094;SDS011;50353;51.420;5.682;2022-09-09T01:45:31;6.20;;;2.13;;
64094;SDS011;50353;51.420;5.682;2022-09-09T01:47:57;6.50;;;2.10;;
64094;SDS011;50353;51.420;5.682;2022-09-09T01:50:23;7.90;;;2.20;;
64094;SDS011;50353;51.420;5.682;2022-09-09T01:52:50;4.78;;;2.22;;
64094;SDS011;50353;51.420;5.682;2022-09-09T01:55:20;7.60;;;2.35;;
64094;SDS011;50353;51.420;5.682;2022-09-09T01:58:29;7.47;;;2.38;;
64094;SDS011;50353;51.420;5.682;2022-09-09T02:03:55;5.47;;;2.22;;
64094;SDS011;50353;51.420;5.682;2022-09-09T02:06:25;9.60;;;2.35;;
64094;SDS011;50353;51.420;5.682;2022-09-09T02:08:57;6.88;;;2.25;;
64094;SDS011;50353;51.420;5.682;2022-09-09T02:11:26;7.20;;;2.20;;
64094;SDS011;50353;51.420;5.682;2022-09-09T02:16:45;8.05;;;2.08;;
64094;SDS011;50353;51.420;5.682;2022-09-09T02:19:18;15.75;;;2.33;;
64094;SDS011;50353;51.420;5.682;2022-09-09T02:21:50;6.47;;;2.45;;
64094;SDS011;50353;51.420;5.682;2022-09-09T02:24:18;8.35;;;2.70;;
64094;SDS011;50353;51.420;5.682;2022-09-09T02:26:44;12.15;;;2.40;;
64094;SDS011;50353;51.420;5.682;2022-09-09T02:29:20;8.02;;;2.30;;
64094;SDS011;50353;51.420;5.682;2022-09-09T02:31:50;6.40;;;2.10;;
64094;SDS011;50353;51.420;5.682;2022-09-09T02:34:20;4.57;;;2.05;;
64094;SDS011;50353;51.420;5.682;2022-09-09T02:36:49;5.97;;;2.22;;
64094;SDS011;50353;51.420;5.682;2022-09-09T02:39:16;6.70;;;2.33;;
64094;SDS011;50353;51.420;5.682;2022-09-09T02:41:41;8.40;;;2.13;;
64094;SDS011;50353;51.420;5.682;2022-09-09T02:44:11;9.98;;;2.58;;
64094;SDS011;50353;51.420;5.682;2022-09-09T02:46:48;6.32;;;2.10;;
64094;SDS011;50353;51.420;5.682;2022-09-09T02:52:17;7.93;;;2.13;;
64094;SDS011;50353;51.420;5.682;2022-09-09T02:54:47;10.20;;;2.35;;
64094;SDS011;50353;51.420;5.682;2022-09-09T02:57:27;7.07;;;2.10;;
64094;SDS011;50353;51.420;5.682;2022-09-09T02:59:58;9.73;;;2.55;;
64094;SDS011;50353;51.420;5.682;2022-09-09T03:02:24;11.60;;;2.20;;
64094;SDS011;50353;51.420;5.682;2022-09-09T03:04:50;9.23;;;2.50;;
64094;SDS011;50353;51.420;5.682;2022-09-09T03:07:17;11.60;;;2.42;;
64094;SDS011;50353;51.420;5.682;2022-09-09T03:09:42;17.43;;;2.47;;
64094;SDS011;50353;51.420;5.682;2022-09-09T03:12:08;11.05;;;2.40;;
64094;SDS011;50353;51.420;5.682;2022-09-09T03:14:35;9.30;;;2.70;;
64094;SDS011;50353;51.420;5.682;2022-09-09T03:17:00;6.60;;;2.03;;
64094;SDS011;50353;51.420;5.682;2022-09-09T03:19:27;9.40;;;2.50;;
64094;SDS011;50353;51.420;5.682;2022-09-09T03:21:52;8.48;;;2.67;;
64094;SDS011;50353;51.420;5.682;2022-09-09T03:24:18;5.20;;;2.00;;
64094;SDS011;50353;51.420;5.682;2022-09-09T03:26:43;7.97;;;2.50;;
64094;SDS011;50353;51.420;5.682;2022-09-09T03:29:12;11.82;;;2.55;;
64094;SDS011;50353;51.420;5.682;2022-09-09T03:31:38;7.97;;;2.58;;
64094;SDS011;50353;51.420;5.682;2022-09-09T03:34:04;12.35;;;2.67;;
64094;SDS011;50353;51.420;5.682;2022-09-09T03:36:30;8.98;;;2.40;;
64094;SDS011;50353;51.420;5.682;2022-09-09T03:38:55;7.50;;;2.47;;
64094;SDS011;50353;51.420;5.682;2022-09-09T03:41:21;5.68;;;2.25;;
64094;SDS011;50353;51.420;5.682;2022-09-09T03:43:48;11.13;;;2.70;;
64094;SDS011;50353;51.420;5.682;2022-09-09T03:46:17;11.57;;;3.25;;
64094;SDS011;50353;51.420;5.682;2022-09-09T03:48:43;11.00;;;2.58;;
64094;SDS011;50353;51.420;5.682;2022-09-09T03:51:09;10.93;;;3.00;;
64094;SDS011;50353;51.420;5.682;2022-09-09T03:53:35;10.20;;;2.75;;
64094;SDS011;50353;51.420;5.682;2022-09-09T03:56:02;10.20;;;3.03;;
64094;SDS011;50353;51.420;5.682;2022-09-09T03:58:29;12.38;;;2.60;;
64094;SDS011;50353;51.420;5.682;2022-09-09T04:00:57;9.50;;;2.30;;
64094;SDS011;50353;51.420;5.682;2022-09-09T04:03:24;13.02;;;3.30;;
64094;SDS011;50353;51.420;5.682;2022-09-09T04:05:53;10.38;;;2.40;;
64094;SDS011;50353;51.420;5.682;2022-09-09T04:08:19;8.40;;;2.45;;
64094;SDS011;50353;51.420;5.682;2022-09-09T04:10:46;9.93;;;2.53;;
64094;SDS011;50353;51.420;5.682;2022-09-09T04:13:12;14.55;;;2.50;;
64094;SDS011;50353;51.420;5.682;2022-09-09T04:15:40;11.13;;;2.60;;
64094;SDS011;50353;51.420;5.682;2022-09-09T04:18:05;11.43;;;2.55;;
64094;SDS011;50353;51.420;5.682;2022-09-09T04:20:31;7.47;;;2.78;;
64094;SDS011;50353;51.420;5.682;2022-09-09T04:22:57;10.20;;;2.83;;
64094;SDS011;50353;51.420;5.682;2022-09-09T04:25:22;6.65;;;2.58;;
64094;SDS011;50353;51.420;5.682;2022-09-09T04:27:52;9.15;;;2.28;;
64094;SDS011;50353;51.420;5.682;2022-09-09T04:30:21;7.97;;;2.40;;
64094;SDS011;50353;51.420;5.682;2022-09-09T04:32:47;9.65;;;2.58;;
64094;SDS011;50353;51.420;5.682;2022-09-09T04:35:12;6.00;;;2.00;;
64094;SDS011;50353;51.420;5.682;2022-09-09T04:37:38;15.07;;;3.05;;
64094;SDS011;50353;51.420;5.682;2022-09-09T04:40:03;9.02;;;2.40;;
64094;SDS011;50353;51.420;5.682;2022-09-09T04:42:29;11.73;;;2.60;;
64094;SDS011;50353;51.420;5.682;2022-09-09T04:44:54;10.40;;;2.90;;
64094;SDS011;50353;51.420;5.682;2022-09-09T04:47:20;12.43;;;3.33;;
64094;SDS011;50353;51.420;5.682;2022-09-09T04:49:46;7.57;;;2.45;;
64094;SDS011;50353;51.420;5.682;2022-09-09T04:52:12;11.03;;;2.60;;
64094;SDS011;50353;51.420;5.682;2022-09-09T04:54:37;13.68;;;3.22;;
64094;SDS011;50353;51.420;5.682;2022-09-09T04:57:03;9.53;;;2.80;;
64094;SDS011;50353;51.420;5.682;2022-09-09T04:59:30;11.10;;;2.90;;
64094;SDS011;50353;51.420;5.682;2022-09-09T05:01:55;18.10;;;2.60;;
64094;SDS011;50353;51.420;5.682;2022-09-09T05:04:21;12.23;;;3.05;;
64094;SDS011;50353;51.420;5.682;2022-09-09T05:06:46;11.20;;;2.80;;
64094;SDS011;50353;51.420;5.682;2022-09-09T05:09:11;10.30;;;2.80;;
64094;SDS011;50353;51.420;5.682;2022-09-09T05:11:37;10.90;;;2.58;;
64094;SDS011;50353;51.420;5.682;2022-09-09T05:14:03;18.38;;;2.75;;
64094;SDS011;50353;51.420;5.682;2022-09-09T05:16:28;11.65;;;2.67;;
64094;SDS011;50353;51.420;5.682;2022-09-09T05:18:55;11.93;;;2.47;;
64094;SDS011;50353;51.420;5.682;2022-09-09T05:21:21;11.30;;;2.63;;
64094;SDS011;50353;51.420;5.682;2022-09-09T05:23:48;11.75;;;3.22;;
64094;SDS011;50353;51.420;5.682;2022-09-09T05:26:15;13.45;;;2.72;;
64094;SDS011;50353;51.420;5.682;2022-09-09T05:28:41;8.93;;;2.60;;
64094;SDS011;50353;51.420;5.682;2022-09-09T05:31:07;8.95;;;2.20;;
64094;SDS011;50353;51.420;5.682;2022-09-09T05:33:36;11.45;;;2.60;;
64094;SDS011;50353;51.420;5.682;2022-09-09T05:36:05;10.05;;;2.50;;
64094;SDS011;50353;51.420;5.682;2022-09-09T05:38:33;12.82;;;2.50;;
64094;SDS011;50353;51.420;5.682;2022-09-09T05:40:59;13.93;;;3.60;;
64094;SDS011;50353;51.420;5.682;2022-09-09T05:43:25;11.30;;;2.72;;
64094;SDS011;50353;51.420;5.682;2022-09-09T05:45:59;11.05;;;2.50;;
64094;SDS011;50353;51.420;5.682;2022-09-09T05:48:30;15.00;;;2.92;;
64094;SDS011;50353;51.420;5.682;2022-09-09T05:50:56;12.65;;;2.88;;
64094;SDS011;50353;51.420;5.682;2022-09-09T05:53:22;13.93;;;2.92;;
64094;SDS011;50353;51.420;5.682;2022-09-09T05:55:47;11.85;;;2.60;;
64094;SDS011;50353;51.420;5.682;2022-09-09T05:58:13;12.93;;;2.75;;
64094;SDS011;50353;51.420;5.682;2022-09-09T06:00:39;12.30;;;2.63;;
64094;SDS011;50353;51.420;5.682;2022-09-09T06:03:04;11.95;;;2.70;;
64094;SDS011;50353;51.420;5.682;2022-09-09T06:05:31;15.70;;;2.17;;
64094;SDS011;50353;51.420;5.682;2022-09-09T06:07:56;10.48;;;2.58;;
64094;SDS011;50353;51.420;5.682;2022-09-09T06:10:22;13.60;;;3.83;;
64094;SDS011;50353;51.420;5.682;2022-09-09T06:12:47;16.48;;;3.60;;
64094;SDS011;50353;51.420;5.682;2022-09-09T06:15:13;10.27;;;2.70;;
64094;SDS011;50353;51.420;5.682;2022-09-09T06:17:38;18.50;;;3.35;;
64094;SDS011;50353;51.420;5.682;2022-09-09T06:20:04;13.27;;;2.78;;
64094;SDS011;50353;51.420;5.682;2022-09-09T06:22:30;15.55;;;2.72;;
64094;SDS011;50353;51.420;5.682;2022-09-09T06:24:56;16.05;;;2.65;;
64094;SDS011;50353;51.420;5.682;2022-09-09T06:27:21;17.33;;;3.35;;
64094;SDS011;50353;51.420;5.682;2022-09-09T06:29:46;14.50;;;2.53;;
64094;SDS011;50353;51.420;5.682;2022-09-09T06:32:12;12.35;;;2.90;;
64094;SDS011;50353;51.420;5.682;2022-09-09T06:34:38;14.93;;;2.92;;
64094;SDS011;50353;51.420;5.682;2022-09-09T06:37:03;10.23;;;2.70;;
64094;SDS011;50353;51.420;5.682;2022-09-09T06:39:29;9.17;;;2.30;;
64094;SDS011;50353;51.420;5.682;2022-09-09T06:41:55;10.00;;;2.95;;
64094;SDS011;50353;51.420;5.682;2022-09-09T06:44:20;10.70;;;2.75;;
64094;SDS011;50353;51.420;5.682;2022-09-09T06:46:45;13.57;;;2.72;;
64094;SDS011;50353;51.420;5.682;2022-09-09T06:49:14;9.80;;;2.30;;
64094;SDS011;50353;51.420;5.682;2022-09-09T06:51:40;10.18;;;2.33;;
64094;SDS011;50353;51.420;5.682;2022-09-09T06:54:08;11.13;;;2.58;;
64094;SDS011;50353;51.420;5.682;2022-09-09T06:59:05;9.95;;;2.80;;
64094;SDS011;50353;51.420;5.682;2022-09-09T07:01:35;13.10;;;2.80;;
64094;SDS011;50353;51.420;5.682;2022-09-09T07:04:02;12.02;;;3.53;;
64094;SDS011;50353;51.420;5.682;2022-09-09T07:06:33;10.98;;;2.78;;
64094;SDS011;50353;51.420;5.682;2022-09-09T07:09:07;9.63;;;2.40;;
64094;SDS011;50353;51.420;5.682;2022-09-09T07:11:38;9.85;;;2.60;;
64094;SDS011;50353;51.420;5.682;2022-09-09T07:14:04;10.70;;;2.33;;
64094;SDS011;50353;51.420;5.682;2022-09-09T07:16:30;10.88;;;2.50;;
64094;SDS011;50353;51.420;5.682;2022-09-09T07:18:58;10.18;;;2.88;;
64094;SDS011;50353;51.420;5.682;2022-09-09T07:21:24;14.07;;;2.40;;
64094;SDS011;50353;51.420;5.682;2022-09-09T07:23:51;13.18;;;2.50;;
64094;SDS011;50353;51.420;5.682;2022-09-09T07:26:17;13.95;;;2.40;;
64094;SDS011;50353;51.420;5.682;2022-09-09T07:28:44;11.73;;;2.40;;
64094;SDS011;50353;51.420;5.682;2022-09-09T07:33:44;12.32;;;2.80;;
64094;SDS011;50353;51.420;5.682;2022-09-09T07:36:14;11.30;;;2.77;;
64094;SDS011;50353;51.420;5.682;2022-09-09T07:38:41;16.50;;;2.92;;
64094;SDS011;50353;51.420;5.682;2022-09-09T07:41:09;11.48;;;2.47;;
64094;SDS011;50353;51.420;5.682;2022-09-09T07:43:39;14.13;;;2.50;;
64094;SDS011;50353;51.420;5.682;2022-09-09T07:46:05;12.25;;;2.63;;
64094;SDS011;50353;51.420;5.682;2022-09-09T07:48:31;16.77;;;2.85;;
64094;SDS011;50353;51.420;5.682;2022-09-09T07:51:07;11.93;;;2.95;;
64094;SDS011;50353;51.420;5.682;2022-09-09T07:53:35;10.13;;;2.33;;
64094;SDS011;50353;51.420;5.682;2022-09-09T07:56:05;12.93;;;3.15;;
64094;SDS011;50353;51.420;5.682;2022-09-09T07:58:32;9.48;;;2.40;;
64094;SDS011;50353;51.420;5.682;2022-09-09T08:00:58;12.02;;;2.63;;
64094;SDS011;50353;51.420;5.682;2022-09-09T08:03:23;14.30;;;2.90;;
64094;SDS011;50353;51.420;5.682;2022-09-09T08:05:49;14.52;;;2.60;;
64094;SDS011;50353;51.420;5.682;2022-09-09T08:08:14;6.43;;;2.05;;
64094;SDS011;50353;51.420;5.682;2022-09-09T08:10:41;11.98;;;2.25;;
64094;SDS011;50353;51.420;5.682;2022-09-09T08:13:06;8.95;;;2.40;;
64094;SDS011;50353;51.420;5.682;2022-09-09T08:15:31;12.15;;;2.45;;
64094;SDS011;50353;51.420;5.682;2022-09-09T08:17:57;15.05;;;3.22;;
64094;SDS011;50353;51.420;5.682;2022-09-09T08:20:22;14.48;;;2.50;;
64094;SDS011;50353;51.420;5.682;2022-09-09T08:22:48;13.38;;;2.40;;
64094;SDS011;50353;51.420;5.682;2022-09-09T08:25:14;12.18;;;3.13;;
64094;SDS011;50353;51.420;5.682;2022-09-09T08:27:40;15.60;;;2.67;;
64094;SDS011;50353;51.420;5.682;2022-09-09T08:30:05;15.05;;;2.70;;
64094;SDS011;50353;51.420;5.682;2022-09-09T08:32:31;17.02;;;3.05;;
64094;SDS011;50353;51.420;5.682;2022-09-09T08:34:56;9.95;;;2.17;;
64094;SDS011;50353;51.420;5.682;2022-09-09T08:37:22;15.75;;;2.50;;
64094;SDS011;50353;51.420;5.682;2022-09-09T08:39:47;13.35;;;2.70;;
64094;SDS011;50353;51.420;5.682;2022-09-09T08:42:19;12.40;;;2.57;;
64094;SDS011;50353;51.420;5.682;2022-09-09T08:45:09;11.77;;;2.47;;
64094;SDS011;50353;51.420;5.682;2022-09-09T08:50:29;14.85;;;2.70;;
64094;SDS011;50353;51.420;5.682;2022-09-09T08:58:19;11.75;;;2.50;;
64094;SDS011;50353;51.420;5.682;2022-09-09T09:00:59;13.52;;;2.40;;
64094;SDS011;50353;51.420;5.682;2022-09-09T09:03:34;11.07;;;2.38;;
64094;SDS011;50353;51.420;5.682;2022-09-09T09:06:03;19.38;;;2.50;;
64094;SDS011;50353;51.420;5.682;2022-09-09T09:08:49;11.00;;;2.30;;
64094;SDS011;50353;51.420;5.682;2022-09-09T09:11:24;11.52;;;2.20;;
64094;SDS011;50353;51.420;5.682;2022-09-09T09:16:58;13.60;;;2.22;;
64094;SDS011;50353;51.420;5.682;2022-09-09T09:19:27;11.55;;;2.40;;
64094;SDS011;50353;51.420;5.682;2022-09-09T09:22:06;13.80;;;2.78;;
64094;SDS011;50353;51.420;5.682;2022-09-09T09:27:12;13.93;;;2.55;;
64094;SDS011;50353;51.420;5.682;2022-09-09T09:29:40;8.13;;;2.50;;
64094;SDS011;50353;51.420;5.682;2022-09-09T09:32:09;8.63;;;2.33;;
64094;SDS011;50353;51.420;5.682;2022-09-09T09:34:40;19.35;;;2.67;;
64094;SDS011;50353;51.420;5.682;2022-09-09T09:37:07;15.20;;;3.00;;
64094;SDS011;50353;51.420;5.682;2022-09-09T09:39:42;8.35;;;1.80;;
64094;SDS011;50353;51.420;5.682;2022-09-09T09:42:09;11.18;;;2.33;;
64094;SDS011;50353;51.420;5.682;2022-09-09T09:44:38;12.63;;;2.63;;
64094;SDS011;50353;51.420;5.682;2022-09-09T09:47:12;13.50;;;2.72;;
64094;SDS011;50353;51.420;5.682;2022-09-09T09:52:17;11.98;;;2.30;;
64094;SDS011;50353;51.420;5.682;2022-09-09T09:54:47;11.13;;;2.60;;
64094;SDS011;50353;51.420;5.682;2022-09-09T09:57:14;12.80;;;2.70;;
64094;SDS011;50353;51.420;5.682;2022-09-09T09:59:41;7.35;;;1.95;;
64094;SDS011;50353;51.420;5.682;2022-09-09T10:02:18;10.00;;;2.30;;
64094;SDS011;50353;51.420;5.682;2022-09-09T10:10:45;12.23;;;2.53;;
64094;SDS011;50353;51.420;5.682;2022-09-09T10:18:59;9.90;;;2.80;;
64094;SDS011;50353;51.420;5.682;2022-09-09T10:24:17;11.40;;;2.10;;
64094;SDS011;50353;51.420;5.682;2022-09-09T10:26:53;9.85;;;2.17;;
64094;SDS011;50353;51.420;5.682;2022-09-09T10:32:22;8.38;;;2.20;;
64094;SDS011;50353;51.420;5.682;2022-09-09T10:40:38;9.77;;;2.55;;
64094;SDS011;50353;51.420;5.682;2022-09-09T10:45:58;9.52;;;2.10;;
64094;SDS011;50353;51.420;5.682;2022-09-09T10:57:00;14.90;;;2.33;;
64094;SDS011;50353;51.420;5.682;2022-09-09T10:59:31;9.85;;;2.95;;
64094;SDS011;50353;51.420;5.682;2022-09-09T11:02:25;10.65;;;2.20;;
64094;SDS011;50353;51.420;5.682;2022-09-09T11:07:29;11.20;;;2.60;;
64094;SDS011;50353;51.420;5.682;2022-09-09T11:10:05;8.50;;;2.20;;
64094;SDS011;50353;51.420;5.682;2022-09-09T11:12:41;7.95;;;2.63;;
64094;SDS011;50353;51.420;5.682;2022-09-09T11:15:25;10.60;;;2.33;;
64094;SDS011;50353;51.420;5.682;2022-09-09T11:17:58;10.93;;;2.58;;
64094;SDS011;50353;51.420;5.682;2022-09-09T11:20:26;7.30;;;2.03;;
64094;SDS011;50353;51.420;5.682;2022-09-09T11:22:53;6.65;;;2.08;;
64094;SDS011;50353;51.420;5.682;2022-09-09T11:25:35;8.68;;;1.95;;
64094;SDS011;50353;51.420;5.682;2022-09-09T11:28:08;7.90;;;1.90;;
64094;SDS011;50353;51.420;5.682;2022-09-09T11:30:46;8.80;;;2.40;;
64094;SDS011;50353;51.420;5.682;2022-09-09T11:42:29;8.82;;;2.20;;
64094;SDS011;50353;51.420;5.682;2022-09-09T11:44:54;10.35;;;2.60;;
64094;SDS011;50353;51.420;5.682;2022-09-09T11:49:55;8.68;;;2.60;;
64094;SDS011;50353;51.420;5.682;2022-09-09T11:52:42;11.13;;;2.90;;
64094;SDS011;50353;51.420;5.682;2022-09-09T11:55:12;16.38;;;2.40;;
64094;SDS011;50353;51.420;5.682;2022-09-09T11:58:00;8.77;;;2.55;;
64094;SDS011;50353;51.420;5.682;2022-09-09T12:00:34;8.85;;;2.50;;
64094;SDS011;50353;51.420;5.682;2022-09-09T12:03:02;8.07;;;2.30;;
64094;SDS011;50353;51.420;5.682;2022-09-09T12:05:35;8.10;;;2.78;;
64094;SDS011;50353;51.420;5.682;2022-09-09T12:08:03;7.55;;;2.17;;
64094;SDS011;50353;51.420;5.682;2022-09-09T12:10:30;8.93;;;2.50;;
64094;SDS011;50353;51.420;5.682;2022-09-09T12:13:18;9.32;;;2.50;;
64094;SDS011;50353;51.420;5.682;2022-09-09T12:15:57;10.38;;;2.50;;
64094;SDS011;50353;51.420;5.682;2022-09-09T12:18:34;12.18;;;2.50;;
64094;SDS011;50353;51.420;5.682;2022-09-09T12:23:55;7.40;;;2.30;;
64094;SDS011;50353;51.420;5.682;2022-09-09T12:26:34;7.70;;;2.47;;
64094;SDS011;50353;51.420;5.682;2022-09-09T12:34:44;7.40;;;2.35;;
64094;SDS011;50353;51.420;5.682;2022-09-09T12:37:24;7.35;;;2.42;;
64094;SDS011;50353;51.420;5.682;2022-09-09T12:39:58;4.93;;;1.85;;
64094;SDS011;50353;51.420;5.682;2022-09-09T12:42:25;8.18;;;2.72;;
64094;SDS011;50353;51.420;5.682;2022-09-09T12:47:16;9.27;;;2.20;;
64094;SDS011;50353;51.420;5.682;2022-09-09T12:49:44;10.52;;;2.70;;
64094;SDS011;50353;51.420;5.682;2022-09-09T12:52:14;8.00;;;2.72;;
64094;SDS011;50353;51.420;5.682;2022-09-09T12:54:59;10.75;;;2.58;;
64094;SDS011;50353;51.420;5.682;2022-09-09T12:57:33;11.68;;;2.50;;
64094;SDS011;50353;51.420;5.682;2022-09-09T13:00:05;9.70;;;2.30;;
64094;SDS011;50353;51.420;5.682;2022-09-09T13:02:34;7.35;;;2.53;;
64094;SDS011;50353;51.420;5.682;2022-09-09T13:05:06;10.73;;;1.98;;
64094;SDS011;50353;51.420;5.682;2022-09-09T13:07:39;9.98;;;2.17;;
64094;SDS011;50353;51.420;5.682;2022-09-09T13:10:05;8.73;;;2.00;;
64094;SDS011;50353;51.420;5.682;2022-09-09T13:12:31;8.27;;;1.63;;
64094;SDS011;50353;51.420;5.682;2022-09-09T13:14:56;10.00;;;1.88;;
64094;SDS011;50353;51.420;5.682;2022-09-09T13:17:22;5.77;;;1.80;;
64094;SDS011;50353;51.420;5.682;2022-09-09T13:19:51;9.55;;;2.03;;
64094;SDS011;50353;51.420;5.682;2022-09-09T13:25:13;7.20;;;2.13;;
64094;SDS011;50353;51.420;5.682;2022-09-09T13:27:54;6.93;;;2.33;;
64094;SDS011;50353;51.420;5.682;2022-09-09T13:30:27;7.32;;;2.00;;
64094;SDS011;50353;51.420;5.682;2022-09-09T13:33:05;7.63;;;1.80;;
64094;SDS011;50353;51.420;5.682;2022-09-09T13:35:31;6.22;;;2.10;;
64094;SDS011;50353;51.420;5.682;2022-09-09T13:37:58;8.60;;;1.95;;
64094;SDS011;50353;51.420;5.682;2022-09-09T13:40:25;6.85;;;1.92;;
64094;SDS011;50353;51.420;5.682;2022-09-09T13:42:51;9.77;;;3.08;;
64094;SDS011;50353;51.420;5.682;2022-09-09T13:45:22;7.07;;;2.00;;
64094;SDS011;50353;51.420;5.682;2022-09-09T13:47:52;9.55;;;2.42;;
64094;SDS011;50353;51.420;5.682;2022-09-09T13:50:26;8.98;;;2.10;;
64094;SDS011;50353;51.420;5.682;2022-09-09T13:52:55;7.57;;;2.10;;
64094;SDS011;50353;51.420;5.682;2022-09-09T13:55:23;7.60;;;2.10;;
64094;SDS011;50353;51.420;5.682;2022-09-09T13:57:53;7.38;;;2.05;;
64094;SDS011;50353;51.420;5.682;2022-09-09T14:00:20;7.43;;;1.70;;
64094;SDS011;50353;51.420;5.682;2022-09-09T14:02:46;8.83;;;1.87;;
64094;SDS011;50353;51.420;5.682;2022-09-09T14:05:12;12.15;;;2.13;;
64094;SDS011;50353;51.420;5.682;2022-09-09T14:07:38;6.53;;;2.00;;
64094;SDS011;50353;51.420;5.682;2022-09-09T14:12:31;5.90;;;1.70;;
64094;SDS011;50353;51.420;5.682;2022-09-09T14:14:56;5.67;;;1.90;;
64094;SDS011;50353;51.420;5.682;2022-09-09T14:17:22;7.63;;;1.70;;
64094;SDS011;50353;51.420;5.682;2022-09-09T14:19:47;7.53;;;2.00;;
64094;SDS011;50353;51.420;5.682;2022-09-09T14:22:13;10.87;;;2.17;;
64094;SDS011;50353;51.420;5.682;2022-09-09T14:24:39;3.80;;;1.50;;
64094;SDS011;50353;51.420;5.682;2022-09-09T14:27:04;4.80;;;1.57;;
64094;SDS011;50353;51.420;5.682;2022-09-09T14:29:29;6.67;;;2.03;;
64094;SDS011;50353;51.420;5.682;2022-09-09T14:31:54;6.27;;;1.93;;
64094;SDS011;50353;51.420;5.682;2022-09-09T14:34:20;8.63;;;1.97;;
64094;SDS011;50353;51.420;5.682;2022-09-09T14:36:45;5.93;;;1.77;;
64094;SDS011;50353;51.420;5.682;2022-09-09T14:39:11;8.52;;;1.85;;
64094;SDS011;50353;51.420;5.682;2022-09-09T14:41:37;7.75;;;1.48;;
64094;SDS011;50353;51.420;5.682;2022-09-09T14:44:02;5.60;;;1.90;;
64094;SDS011;50353;51.420;5.682;2022-09-09T14:46:28;6.45;;;2.00;;
64094;SDS011;50353;51.420;5.682;2022-09-09T14:48:53;8.60;;;1.83;;
64094;SDS011;50353;51.420;5.682;2022-09-09T14:51:20;5.15;;;1.83;;
64094;SDS011;50353;51.420;5.682;2022-09-09T14:53:53;8.05;;;1.95;;
64094;SDS011;50353;51.420;5.682;2022-09-09T14:56:21;5.50;;;1.80;;
64094;SDS011;50353;51.420;5.682;2022-09-09T14:58:49;9.60;;;2.20;;
64094;SDS011;50353;51.420;5.682;2022-09-09T15:03:42;8.35;;;2.40;;
64094;SDS011;50353;51.420;5.682;2022-09-09T15:06:13;5.93;;;1.85;;
64094;SDS011;50353;51.420;5.682;2022-09-09T15:08:43;7.70;;;1.97;;
64094;SDS011;50353;51.420;5.682;2022-09-09T15:11:10;6.45;;;1.55;;
64094;SDS011;50353;51.420;5.682;2022-09-09T15:13:36;9.30;;;2.17;;
64094;SDS011;50353;51.420;5.682;2022-09-09T15:16:04;5.78;;;1.70;;
64094;SDS011;50353;51.420;5.682;2022-09-09T15:18:30;7.50;;;1.73;;
64094;SDS011;50353;51.420;5.682;2022-09-09T15:20:58;6.50;;;1.77;;
64094;SDS011;50353;51.420;5.682;2022-09-09T15:23:24;11.38;;;1.80;;
64094;SDS011;50353;51.420;5.682;2022-09-09T15:25:50;7.53;;;1.95;;
64094;SDS011;50353;51.420;5.682;2022-09-09T15:28:20;8.85;;;2.15;;
64094;SDS011;50353;51.420;5.682;2022-09-09T15:30:49;5.50;;;1.63;;
64094;SDS011;50353;51.420;5.682;2022-09-09T15:33:16;6.15;;;1.70;;
64094;SDS011;50353;51.420;5.682;2022-09-09T15:35:42;8.52;;;1.90;;
64094;SDS011;50353;51.420;5.682;2022-09-09T15:38:07;9.90;;;2.20;;
64094;SDS011;50353;51.420;5.682;2022-09-09T15:40:32;5.03;;;1.90;;
64094;SDS011;50353;51.420;5.682;2022-09-09T15:42:58;6.03;;;1.70;;
64094;SDS011;50353;51.420;5.682;2022-09-09T15:45:24;6.13;;;2.10;;
64094;SDS011;50353;51.420;5.682;2022-09-09T15:47:49;7.53;;;2.03;;
64094;SDS011;50353;51.420;5.682;2022-09-09T15:50:14;5.57;;;1.75;;
64094;SDS011;50353;51.420;5.682;2022-09-09T15:52:40;4.85;;;1.83;;
64094;SDS011;50353;51.420;5.682;2022-09-09T15:55:06;5.23;;;1.97;;
64094;SDS011;50353;51.420;5.682;2022-09-09T15:59:59;8.80;;;2.10;;
64094;SDS011;50353;51.420;5.682;2022-09-09T16:02:24;3.53;;;1.57;;
64094;SDS011;50353;51.420;5.682;2022-09-09T16:04:50;9.40;;;2.10;;
64094;SDS011;50353;51.420;5.682;2022-09-09T16:07:15;6.15;;;2.25;;
64094;SDS011;50353;51.420;5.682;2022-09-09T16:09:40;9.98;;;2.30;;
64094;SDS011;50353;51.420;5.682;2022-09-09T16:12:08;5.32;;;1.80;;
64094;SDS011;50353;51.420;5.682;2022-09-09T16:14:37;10.88;;;2.33;;
64094;SDS011;50353;51.420;5.682;2022-09-09T16:17:04;3.95;;;1.65;;
64094;SDS011;50353;51.420;5.682;2022-09-09T16:21:56;4.40;;;1.40;;
64094;SDS011;50353;51.420;5.682;2022-09-09T16:24:22;6.75;;;2.08;;
64094;SDS011;50353;51.420;5.682;2022-09-09T16:26:49;9.13;;;1.77;;
64094;SDS011;50353;51.420;5.682;2022-09-09T16:29:16;11.02;;;1.75;;
64094;SDS011;50353;51.420;5.682;2022-09-09T16:31:43;5.90;;;1.95;;
64094;SDS011;50353;51.420;5.682;2022-09-09T16:34:09;6.43;;;1.90;;
64094;SDS011;50353;51.420;5.682;2022-09-09T16:36:36;5.20;;;1.70;;
64094;SDS011;50353;51.420;5.682;2022-09-09T16:39:04;5.57;;;1.60;;
64094;SDS011;50353;51.420;5.682;2022-09-09T16:41:31;5.38;;;1.60;;
64094;SDS011;50353;51.420;5.682;2022-09-09T16:48:51;7.95;;;2.05;;
64094;SDS011;50353;51.420;5.682;2022-09-09T16:51:20;6.67;;;2.00;;
64094;SDS011;50353;51.420;5.682;2022-09-09T16:53:50;6.93;;;1.70;;
64094;SDS011;50353;51.420;5.682;2022-09-09T16:56:18;4.93;;;1.70;;
64094;SDS011;50353;51.420;5.682;2022-09-09T16:58:49;4.85;;;1.60;;
64094;SDS011;50353;51.420;5.682;2022-09-09T17:01:15;10.77;;;1.95;;
64094;SDS011;50353;51.420;5.682;2022-09-09T17:03:40;5.82;;;1.90;;
64094;SDS011;50353;51.420;5.682;2022-09-09T17:06:10;5.90;;;1.90;;
64094;SDS011;50353;51.420;5.682;2022-09-09T17:08:36;2.42;;;1.02;;
64094;SDS011;50353;51.420;5.682;2022-09-09T17:11:02;3.10;;;1.70;;
64094;SDS011;50353;51.420;5.682;2022-09-09T17:13:29;13.02;;;2.10;;
64094;SDS011;50353;51.420;5.682;2022-09-09T17:15:55;4.57;;;1.38;;